createdAt,value
2022-08-14T00:02:02.296Z,64.40
2022-08-14T00:04:34.160Z,63.60
2022-08-14T00:07:06.079Z,63.40
2022-08-14T00:09:39.852Z,62.60
2022-08-14T00:12:33.658Z,63.60
2022-08-14T00:15:10.271Z,66.20
2022-08-14T00:17:47.999Z,58.60
2022-08-14T00:20:23.682Z,61.80
2022-08-14T00:22:57.503Z,58.20
2022-08-14T00:25:41.603Z,59.80
2022-08-14T00:28:15.238Z,57.00
2022-08-14T00:30:46.023Z,58.80
2022-08-14T00:33:16.089Z,55.40
2022-08-14T00:36:36.909Z,60.80
2022-08-14T00:38:34.861Z,55.00
2022-08-14T00:41:04.103Z,58.40
2022-08-14T00:43:33.738Z,61.00
2022-08-14T00:46:05.298Z,58.60
2022-08-14T00:48:38.441Z,63.80
2022-08-14T00:51:08.929Z,55.00
2022-08-14T00:53:38.438Z,58.20
2022-08-14T00:56:08.437Z,61.00
2022-08-14T00:58:44.935Z,61.00
2022-08-14T01:01:14.800Z,66.00
2022-08-14T01:03:45.294Z,63.20
2022-08-14T01:06:18.542Z,59.60
2022-08-14T01:08:52.137Z,57.80
2022-08-14T01:11:35.240Z,58.00
2022-08-14T01:14:25.823Z,54.00
2022-08-14T01:16:55.695Z,52.40
2022-08-14T01:19:41.583Z,55.40
2022-08-14T01:22:12.698Z,53.20
2022-08-14T01:24:43.438Z,50.60
2022-08-14T01:27:15.537Z,50.00
2022-08-14T01:29:58.522Z,45.80
2022-08-14T01:32:37.318Z,49.00
2022-08-14T01:35:21.144Z,46.40
2022-08-14T01:38:00.889Z,48.00
2022-08-14T01:40:36.210Z,44.40
2022-08-14T01:43:11.626Z,48.80
2022-08-14T01:45:40.138Z,48.40
2022-08-14T01:48:13.895Z,47.40
2022-08-14T01:50:44.107Z,46.60
2022-08-14T01:53:14.813Z,46.40
2022-08-14T01:55:44.899Z,46.60
2022-08-14T01:58:19.477Z,46.40
2022-08-14T02:00:54.751Z,46.60
2022-08-14T02:03:29.542Z,46.00
2022-08-14T02:06:31.770Z,44.20
2022-08-14T02:08:52.635Z,46.00
2022-08-14T02:11:24.820Z,45.00
2022-08-14T02:13:56.669Z,45.40
2022-08-14T02:16:26.697Z,48.00
2022-08-14T02:18:56.626Z,47.00
2022-08-14T02:21:27.289Z,47.40
2022-08-14T02:23:57.450Z,46.20
2022-08-14T02:26:29.288Z,46.20
2022-08-14T02:29:00.291Z,45.60
2022-08-14T02:31:42.149Z,38.20
2022-08-14T02:34:22.593Z,44.60
2022-08-14T02:37:04.182Z,43.80
2022-08-14T02:39:38.382Z,41.60
2022-08-14T02:42:13.024Z,43.80
2022-08-14T02:44:42.969Z,43.80
2022-08-14T02:47:15.053Z,43.00
2022-08-14T02:49:50.501Z,37.00
2022-08-14T02:52:56.241Z,43.80
2022-08-14T02:55:15.553Z,38.00
2022-08-14T02:57:57.784Z,42.00
2022-08-14T03:00:27.290Z,40.40
2022-08-14T03:02:58.727Z,43.20
2022-08-14T03:05:33.135Z,42.40
2022-08-14T03:08:08.553Z,40.25
2022-08-14T03:10:41.632Z,41.40
2022-08-14T03:13:13.715Z,40.80
2022-08-14T03:15:56.038Z,42.40
2022-08-14T03:18:31.112Z,42.80
2022-08-14T03:21:01.680Z,39.60
2022-08-14T03:23:37.945Z,38.80
2022-08-14T03:26:13.163Z,38.20
2022-08-14T03:28:48.069Z,34.60
2022-08-14T03:31:17.415Z,38.00
2022-08-14T03:33:51.759Z,39.80
2022-08-14T03:37:38.050Z,39.20
2022-08-14T03:39:22.706Z,38.20
2022-08-14T03:41:54.988Z,38.60
2022-08-14T03:45:27.067Z,38.25
2022-08-14T03:47:12.242Z,38.25
2022-08-14T03:49:44.238Z,38.50
2022-08-14T03:52:37.908Z,36.00
2022-08-14T03:55:06.798Z,33.60
2022-08-14T03:57:37.162Z,39.00
2022-08-14T04:00:09.019Z,37.50
2022-08-14T04:02:47.357Z,39.25
2022-08-14T04:05:16.899Z,40.50
2022-08-14T04:07:49.998Z,37.50
2022-08-14T04:10:36.566Z,37.75
2022-08-14T04:13:06.576Z,39.25
2022-08-14T04:15:55.959Z,36.00
2022-08-14T04:18:24.332Z,37.00
2022-08-14T04:20:55.337Z,37.25
2022-08-14T04:23:29.730Z,36.00
2022-08-14T04:26:01.836Z,38.75
2022-08-14T04:29:07.881Z,28.50
2022-08-14T04:32:56.454Z,39.25
2022-08-14T04:34:17.278Z,35.75
2022-08-14T04:37:07.907Z,36.25
2022-08-14T04:39:57.430Z,34.00
2022-08-14T04:42:51.694Z,36.25
2022-08-14T04:45:23.950Z,33.25
2022-08-14T04:48:09.932Z,30.50
2022-08-14T04:50:44.456Z,32.00
2022-08-14T04:53:15.251Z,34.50
2022-08-14T04:55:46.084Z,33.25
2022-08-14T04:58:21.608Z,31.50
2022-08-14T05:00:52.608Z,33.00
2022-08-14T05:03:22.966Z,34.00
2022-08-14T05:05:54.626Z,26.00
2022-08-14T05:08:31.400Z,30.50
2022-08-14T05:11:00.665Z,24.00
2022-08-14T05:13:31.889Z,19.75
2022-08-14T05:16:13.349Z,32.50
2022-08-14T05:19:25.227Z,26.25
2022-08-14T05:21:57.147Z,29.50
2022-08-14T05:24:23.261Z,27.25
2022-08-14T05:26:52.682Z,26.00
2022-08-14T05:29:21.925Z,27.75
2022-08-14T05:31:57.285Z,24.50
2022-08-14T05:34:31.493Z,26.75
2022-08-14T05:37:02.794Z,33.00
2022-08-14T05:39:31.859Z,28.50
2022-08-14T05:42:00.681Z,25.25
2022-08-14T05:44:30.903Z,30.50
2022-08-14T05:47:01.085Z,30.00
2022-08-14T05:49:33.116Z,31.50
2022-08-14T05:52:02.895Z,31.75
2022-08-14T05:54:35.915Z,24.25
2022-08-14T05:57:05.357Z,19.75
2022-08-14T05:59:36.509Z,24.00
2022-08-14T06:02:10.193Z,31.00
2022-08-14T06:04:48.233Z,29.75
2022-08-14T06:07:18.306Z,30.50
2022-08-14T06:09:52.317Z,32.75
2022-08-14T06:13:00.090Z,31.75
2022-08-14T06:15:13.499Z,34.75
2022-08-14T06:17:47.305Z,36.50
2022-08-14T06:20:27.912Z,38.25
2022-08-14T06:22:57.154Z,35.75
2022-08-14T06:25:28.122Z,34.50
2022-08-14T06:27:58.009Z,31.00
2022-08-14T06:30:41.819Z,21.25
2022-08-14T06:33:17.993Z,29.00
2022-08-14T06:35:47.065Z,21.00
2022-08-14T06:38:18.578Z,19.75
2022-08-14T06:40:47.183Z,21.25
2022-08-14T06:43:16.947Z,16.00
2022-08-14T06:45:54.402Z,17.00
2022-08-14T06:48:25.449Z,11.00
2022-08-14T06:50:54.796Z,16.75
2022-08-14T06:53:27.869Z,19.00
2022-08-14T06:56:00.898Z,15.25
2022-08-14T06:58:32.450Z,17.25
2022-08-14T07:01:24.937Z,17.00
2022-08-14T07:04:23.928Z,13.25
2022-08-14T07:06:55.763Z,14.00
2022-08-14T07:09:28.268Z,14.50
2022-08-14T07:12:55.158Z,18.00
2022-08-14T07:15:02.327Z,16.00
2022-08-14T07:17:32.039Z,13.50
2022-08-14T07:20:05.245Z,18.25
2022-08-14T07:22:49.899Z,16.50
2022-08-14T07:25:32.729Z,18.25
2022-08-14T07:28:01.646Z,19.00
2022-08-14T07:30:33.881Z,15.00
2022-08-14T07:33:04.715Z,16.25
2022-08-14T07:35:43.114Z,12.50
2022-08-14T07:38:24.101Z,15.50
2022-08-14T07:40:53.364Z,14.25
2022-08-14T07:43:23.761Z,12.75
2022-08-14T07:45:54.065Z,12.75
2022-08-14T07:48:25.271Z,13.75
2022-08-14T07:51:03.000Z,12.50
2022-08-14T07:53:37.609Z,14.25
2022-08-14T07:56:22.060Z,12.75
2022-08-14T07:58:58.990Z,11.50
2022-08-14T08:01:31.039Z,13.00
2022-08-14T08:04:01.191Z,10.00
2022-08-14T08:06:31.051Z,9.25
2022-08-14T08:09:01.063Z,12.75
2022-08-14T08:11:34.811Z,10.50
2022-08-14T08:14:10.397Z,11.25
2022-08-14T08:16:39.686Z,9.25
2022-08-14T08:19:12.920Z,10.50
2022-08-14T08:21:45.623Z,10.25
2022-08-14T08:24:15.048Z,13.75
2022-08-14T08:26:50.282Z,12.00
2022-08-14T08:29:28.580Z,15.25
2022-08-14T08:32:01.582Z,11.25
2022-08-14T08:34:33.483Z,12.50
2022-08-14T08:37:07.320Z,16.50
2022-08-14T08:40:02.739Z,12.25
2022-08-14T08:42:38.433Z,12.75
2022-08-14T08:45:17.431Z,12.00
2022-08-14T08:47:48.847Z,14.25
2022-08-14T08:50:31.902Z,12.50
2022-08-14T08:53:02.615Z,12.50
2022-08-14T08:55:35.939Z,16.00
2022-08-14T08:58:15.931Z,13.25
2022-08-14T09:00:48.628Z,15.00
2022-08-14T09:03:20.649Z,15.50
2022-08-14T09:05:56.225Z,17.00
2022-08-14T09:08:31.433Z,13.50
2022-08-14T09:11:02.580Z,15.75
2022-08-14T09:13:49.050Z,16.00
2022-08-14T09:16:20.239Z,14.25
2022-08-14T09:18:48.628Z,15.50
2022-08-14T09:21:18.420Z,15.25
2022-08-14T09:24:26.378Z,15.50
2022-08-14T09:26:37.869Z,15.25
2022-08-14T09:29:10.425Z,13.25
2022-08-14T09:31:42.853Z,14.50
2022-08-14T09:34:31.666Z,14.25
2022-08-14T09:37:22.274Z,15.50
2022-08-14T09:40:00.083Z,9.25
2022-08-14T09:42:36.448Z,13.25
2022-08-14T09:45:17.631Z,15.50
2022-08-14T09:47:47.087Z,15.00
2022-08-14T09:50:18.456Z,15.50
2022-08-14T09:52:55.059Z,15.25
2022-08-14T09:55:28.303Z,12.50
2022-08-14T09:58:15.039Z,16.75
2022-08-14T10:00:49.089Z,13.50
2022-08-14T10:03:28.660Z,13.75
2022-08-14T10:06:05.597Z,16.25
2022-08-14T10:08:41.716Z,15.00
2022-08-14T10:11:23.175Z,14.25
2022-08-14T10:13:55.905Z,11.00
2022-08-14T10:16:32.073Z,18.00
2022-08-14T10:19:07.132Z,18.25
2022-08-14T10:21:38.805Z,15.75
2022-08-14T10:24:36.927Z,16.00
2022-08-14T10:27:17.205Z,15.75
2022-08-14T10:29:46.367Z,16.50
2022-08-14T10:32:17.654Z,17.00
2022-08-14T10:35:05.658Z,15.50
2022-08-14T10:37:40.132Z,17.00
2022-08-14T10:40:16.952Z,15.00
2022-08-14T10:42:59.505Z,16.00
2022-08-14T10:45:35.556Z,15.25
2022-08-14T10:48:23.624Z,13.25
2022-08-14T10:50:54.073Z,16.00
2022-08-14T10:53:29.381Z,17.50
2022-08-14T10:56:04.157Z,18.00
2022-08-14T10:58:35.059Z,17.00
2022-08-14T11:01:05.548Z,15.50
2022-08-14T11:03:55.975Z,16.75
2022-08-14T11:06:27.160Z,14.00
2022-08-14T11:08:56.015Z,16.25
2022-08-14T11:11:28.597Z,16.00
2022-08-14T11:14:09.672Z,16.25
2022-08-14T11:16:41.107Z,15.50
2022-08-14T11:19:24.290Z,15.00
2022-08-14T11:21:56.066Z,13.00
2022-08-14T11:24:50.590Z,16.00
2022-08-14T11:27:19.039Z,15.75
2022-08-14T11:29:52.836Z,16.25
2022-08-14T11:32:29.368Z,14.75
2022-08-14T11:34:59.418Z,14.25
2022-08-14T11:37:36.857Z,15.75
2022-08-14T11:40:24.207Z,14.00
2022-08-14T11:42:59.431Z,14.75
2022-08-14T11:45:33.015Z,13.75
2022-08-14T11:49:03.229Z,12.75
2022-08-14T11:51:13.413Z,11.50
2022-08-14T11:53:45.744Z,8.50
2022-08-14T11:56:15.426Z,11.25
2022-08-14T11:58:51.256Z,10.25
2022-08-14T12:01:26.103Z,9.00
2022-08-14T12:03:57.680Z,9.75
2022-08-14T12:06:29.001Z,15.00
2022-08-14T12:09:08.344Z,12.00
2022-08-14T12:11:43.553Z,14.00
2022-08-14T12:14:34.739Z,10.25
2022-08-14T12:17:12.221Z,13.75
2022-08-14T12:19:50.950Z,13.50
2022-08-14T12:22:32.748Z,11.50
2022-08-14T12:25:04.986Z,9.50
2022-08-14T12:27:41.865Z,14.50
2022-08-14T12:30:38.139Z,12.00
2022-08-14T12:33:23.905Z,11.25
2022-08-14T12:35:57.523Z,11.50
2022-08-14T12:38:33.874Z,14.25
2022-08-14T12:41:08.004Z,12.00
2022-08-14T12:43:46.536Z,10.50
2022-08-14T12:46:27.275Z,10.75
2022-08-14T12:48:59.335Z,7.00
2022-08-14T12:51:28.587Z,12.25
2022-08-14T12:54:00.389Z,11.75
2022-08-14T12:56:33.225Z,12.00
2022-08-14T12:59:03.187Z,13.75
2022-08-14T13:02:00.318Z,13.00
2022-08-14T13:04:29.601Z,11.00
2022-08-14T13:07:01.752Z,9.60
2022-08-14T13:09:36.332Z,11.25
2022-08-14T13:12:32.349Z,13.50
2022-08-14T13:14:58.079Z,11.00
2022-08-14T13:17:26.940Z,11.00
2022-08-14T13:19:59.266Z,10.75
2022-08-14T13:22:33.490Z,10.75
2022-08-14T13:25:05.235Z,11.25
2022-08-14T13:27:39.362Z,11.25
2022-08-14T13:30:14.548Z,11.50
2022-08-14T13:32:52.381Z,12.00
2022-08-14T13:35:23.070Z,11.00
2022-08-14T13:37:53.751Z,11.25
2022-08-14T13:40:26.575Z,13.50
2022-08-14T13:42:56.933Z,14.75
2022-08-14T13:45:33.609Z,13.25
2022-08-14T13:48:32.197Z,13.25
2022-08-14T13:51:05.635Z,16.00
2022-08-14T13:53:49.549Z,15.25
2022-08-14T13:56:36.630Z,10.25
2022-08-14T13:59:05.451Z,12.00
2022-08-14T14:01:42.742Z,11.25
2022-08-14T14:04:19.322Z,7.60
2022-08-14T14:06:51.275Z,12.00
2022-08-14T14:09:22.990Z,10.75
2022-08-14T14:11:53.058Z,9.75
2022-08-14T14:14:29.762Z,12.50
2022-08-14T14:17:12.640Z,9.00
2022-08-14T14:19:46.712Z,10.25
2022-08-14T14:22:36.038Z,14.00
2022-08-14T14:25:06.168Z,12.25
2022-08-14T14:27:40.335Z,14.25
2022-08-14T14:30:46.221Z,12.75
2022-08-14T14:33:04.394Z,14.25
2022-08-14T14:35:38.366Z,13.00
2022-08-14T14:38:10.240Z,12.00
2022-08-14T14:40:53.494Z,11.00
2022-08-14T14:43:29.987Z,14.75
2022-08-14T14:45:58.818Z,17.75
2022-08-14T14:48:31.589Z,14.75
2022-08-14T14:51:01.626Z,15.75
2022-08-14T14:53:39.349Z,17.75
2022-08-14T14:56:50.760Z,18.75
2022-08-14T14:58:57.816Z,14.50
2022-08-14T15:01:26.930Z,17.50
2022-08-14T15:03:56.511Z,12.00
2022-08-14T15:06:30.186Z,10.50
2022-08-14T15:09:04.827Z,18.00
2022-08-14T15:11:37.080Z,18.75
2022-08-14T15:14:57.184Z,18.00
2022-08-14T15:16:55.030Z,13.00
2022-08-14T15:19:27.720Z,19.00
2022-08-14T15:21:56.952Z,20.50
2022-08-14T15:24:27.214Z,20.25
2022-08-14T15:26:58.528Z,18.25
2022-08-14T15:29:27.692Z,20.25
2022-08-14T15:31:56.331Z,18.25
2022-08-14T15:34:43.571Z,19.75
2022-08-14T15:37:16.716Z,19.50
2022-08-14T15:39:46.904Z,19.25
2022-08-14T15:42:17.769Z,21.50
2022-08-14T15:44:57.508Z,20.00
2022-08-14T15:47:32.304Z,20.75
2022-08-14T15:50:03.834Z,20.25
2022-08-14T15:52:35.250Z,20.00
2022-08-14T15:55:07.524Z,19.25
2022-08-14T15:57:36.497Z,17.00
2022-08-14T16:00:43.684Z,21.00
2022-08-14T16:03:16.700Z,22.00
2022-08-14T16:05:45.838Z,20.25
2022-08-14T16:08:26.871Z,19.50
2022-08-14T16:11:00.273Z,22.25
2022-08-14T16:13:39.856Z,22.75
2022-08-14T16:16:47.270Z,26.00
2022-08-14T16:19:01.125Z,23.25
2022-08-14T16:21:31.664Z,27.00
2022-08-14T16:24:01.449Z,27.00
2022-08-14T16:26:33.254Z,19.75
2022-08-14T16:29:04.624Z,23.75
2022-08-14T16:31:36.036Z,22.25
2022-08-14T16:34:44.598Z,17.00
2022-08-14T16:36:54.571Z,21.75
2022-08-14T16:39:24.011Z,18.25
2022-08-14T16:41:53.901Z,21.50
2022-08-14T16:44:33.848Z,23.75
2022-08-14T16:47:03.430Z,26.50
2022-08-14T16:50:03.238Z,25.50
2022-08-14T16:52:25.975Z,28.00
2022-08-14T16:55:11.076Z,21.75
2022-08-14T16:57:50.068Z,27.00
2022-08-14T17:00:32.598Z,27.25
2022-08-14T17:03:03.174Z,29.50
2022-08-14T17:05:38.286Z,25.00
2022-08-14T17:08:41.676Z,31.75
2022-08-14T17:11:10.302Z,31.50
2022-08-14T17:13:59.775Z,30.25
2022-08-14T17:16:35.704Z,31.50
2022-08-14T17:19:11.637Z,32.50
2022-08-14T17:21:47.602Z,34.00
2022-08-14T17:24:57.434Z,35.00
2022-08-14T17:27:07.527Z,32.00
2022-08-14T17:29:55.941Z,27.00
2022-08-14T17:32:29.365Z,33.00
2022-08-14T17:35:11.490Z,30.25
2022-08-14T17:37:46.424Z,32.75
2022-08-14T17:40:16.588Z,35.80
2022-08-14T17:43:01.774Z,37.20
2022-08-14T17:45:52.198Z,39.20
2022-08-14T17:49:15.486Z,37.50
2022-08-14T17:51:24.013Z,36.00
2022-08-14T17:54:03.437Z,36.20
2022-08-14T17:56:33.698Z,39.20
2022-08-14T17:59:04.951Z,41.60
2022-08-14T18:01:37.405Z,40.60
2022-08-14T18:04:24.676Z,41.00
2022-08-14T18:06:57.953Z,42.00
2022-08-14T18:09:28.622Z,41.40
2022-08-14T18:12:03.703Z,41.20
2022-08-14T18:14:48.642Z,40.80
2022-08-14T18:17:23.267Z,39.20
2022-08-14T18:19:53.994Z,40.00
2022-08-14T18:22:36.320Z,39.40
2022-08-14T18:25:18.338Z,40.80
2022-08-14T18:27:51.616Z,43.40
2022-08-14T18:30:36.416Z,43.00
2022-08-14T18:33:17.943Z,40.20
2022-08-14T18:35:58.470Z,44.00
2022-08-14T18:38:46.097Z,42.00
2022-08-14T18:41:37.221Z,43.00
2022-08-14T18:44:10.955Z,41.00
2022-08-14T18:47:00.627Z,45.20
2022-08-14T18:49:33.649Z,47.20
2022-08-14T18:52:18.845Z,47.60
2022-08-14T18:54:48.512Z,47.20
2022-08-14T18:57:20.899Z,49.40
2022-08-14T18:59:49.357Z,47.60
2022-08-14T19:02:42.451Z,49.20
2022-08-14T19:05:11.506Z,47.00
2022-08-14T19:07:48.166Z,48.00
2022-08-14T19:10:37.636Z,48.80
2022-08-14T19:13:12.112Z,39.00
2022-08-14T19:15:42.724Z,44.80
2022-08-14T19:18:26.502Z,47.60
2022-08-14T19:20:58.389Z,47.00
2022-08-14T19:23:40.560Z,47.80
2022-08-14T19:26:33.900Z,46.00
2022-08-14T19:29:18.202Z,36.60
2022-08-14T19:31:55.814Z,44.60
2022-08-14T19:34:48.082Z,44.20
2022-08-14T19:37:36.889Z,45.20
2022-08-14T19:40:15.229Z,41.60
2022-08-14T19:42:48.987Z,43.60
2022-08-14T19:45:18.742Z,46.80
2022-08-14T19:47:49.953Z,45.00
2022-08-14T19:50:38.356Z,44.60
2022-08-14T19:53:11.833Z,45.20
2022-08-14T19:55:58.687Z,45.00
2022-08-14T19:58:38.208Z,43.00
2022-08-14T20:01:37.642Z,45.80
2022-08-14T20:04:08.332Z,50.00
2022-08-14T20:06:57.145Z,45.40
2022-08-14T20:11:03.053Z,46.00
2022-08-14T20:12:28.329Z,43.00
2022-08-14T20:15:08.975Z,42.80
2022-08-14T20:17:40.668Z,44.20
